createdAt,value
2017-12-24T00:00:13.713Z,1.25
2017-12-24T00:01:23.693Z,1.18
2017-12-24T00:02:33.745Z,1.24
2017-12-24T00:03:43.733Z,1.16
2017-12-24T00:04:53.716Z,1.18
2017-12-24T00:06:03.756Z,1.16
2017-12-24T00:07:13.477Z,1.12
2017-12-24T00:08:23.191Z,1.12
2017-12-24T00:09:32.909Z,1.12
2017-12-24T00:10:42.640Z,1.09
2017-12-24T00:11:52.625Z,1.03
2017-12-24T00:13:02.613Z,1
2017-12-24T00:14:12.334Z,0.95
2017-12-24T00:15:22.319Z,0.95
2017-12-24T00:16:32.037Z,0.91
2017-12-24T00:17:42.028Z,0.85
2017-12-24T00:18:52.006Z,0.77
2017-12-24T00:20:02.000Z,0.94
2017-12-24T00:21:11.715Z,0.99
2017-12-24T00:22:21.708Z,1
2017-12-24T00:23:31.746Z,1.02
2017-12-24T00:24:41.732Z,1.07
2017-12-24T00:25:51.712Z,1.04
2017-12-24T00:27:01.698Z,1.07
2017-12-24T00:28:11.695Z,1.09
2017-12-24T00:29:21.684Z,1.14
2017-12-24T00:30:31.664Z,1.06
2017-12-24T00:31:41.384Z,1.09
2017-12-24T00:32:51.380Z,1.09
2017-12-24T00:34:01.105Z,1.1
2017-12-24T00:35:10.557Z,1.1
2017-12-24T00:36:20.295Z,1.06
2017-12-24T00:37:30.010Z,1.21
2017-12-24T00:38:39.996Z,1.04
2017-12-24T00:39:49.976Z,1.06
2017-12-24T00:40:59.958Z,1.09
2017-12-24T00:42:09.955Z,1.09
2017-12-24T00:43:19.669Z,1.04
2017-12-24T00:44:29.710Z,0.92
2017-12-24T00:45:39.688Z,0.88
2017-12-24T00:46:49.416Z,0.92
2017-12-24T00:47:59.396Z,0.85
2017-12-24T00:49:09.374Z,0.81
2017-12-24T00:50:19.355Z,0.73
2017-12-24T00:51:29.340Z,0.63
2017-12-24T00:52:39.323Z,0.66
2017-12-24T00:53:49.339Z,0.66
2017-12-24T00:54:59.334Z,0.64
2017-12-24T00:56:09.640Z,0.64
2017-12-24T00:57:19.634Z,0.66
2017-12-24T00:58:29.353Z,0.47
2017-12-24T00:59:39.353Z,0.49
2017-12-24T01:00:49.342Z,0.55
2017-12-24T01:01:59.375Z,0.47
2017-12-24T01:03:09.358Z,0.48
2017-12-24T01:04:19.336Z,0.47
2017-12-24T01:05:29.338Z,0.49
2017-12-24T01:06:39.371Z,0.44
2017-12-24T01:07:49.084Z,0.44
2017-12-24T01:08:59.076Z,0.33
2017-12-24T01:10:09.094Z,0.45
2017-12-24T01:11:19.076Z,0.45
2017-12-24T01:12:29.068Z,0.3
2017-12-24T01:13:39.048Z,0.33
2017-12-24T01:14:48.759Z,0.31
2017-12-24T01:15:58.742Z,0.24
2017-12-24T01:17:08.457Z,0.2
2017-12-24T01:18:18.438Z,0.33
2017-12-24T01:19:28.424Z,0.34
2017-12-24T01:20:38.405Z,0.4
2017-12-24T01:21:48.402Z,0.37
2017-12-24T01:22:58.382Z,0.34
2017-12-24T01:24:08.363Z,0.47
2017-12-24T01:25:18.345Z,0.45
2017-12-24T01:26:28.327Z,0.44
2017-12-24T01:27:38.308Z,0.39
2017-12-24T01:28:48.304Z,0.49
2017-12-24T01:29:58.018Z,0.44
2017-12-24T01:31:07.743Z,0.31
2017-12-24T01:32:17.728Z,0.42
2017-12-24T01:33:27.707Z,0.36
2017-12-24T01:34:37.692Z,0.39
2017-12-24T01:35:47.409Z,0.39
2017-12-24T01:36:57.466Z,0.4
2017-12-24T01:38:07.453Z,0.4
2017-12-24T01:39:17.440Z,0.36
2017-12-24T01:40:27.431Z,0.4
2017-12-24T01:41:37.411Z,0.34
2017-12-24T01:42:47.388Z,0.19
2017-12-24T01:43:56.847Z,0.2
2017-12-24T01:45:06.832Z,0.16
2017-12-24T01:46:16.816Z,0.18
2017-12-24T01:47:26.798Z,0.05
2017-12-24T01:48:36.780Z,0.06
2017-12-24T01:49:46.775Z,0.15
2017-12-24T01:50:56.755Z,0.09
2017-12-24T01:52:06.739Z,0.09
2017-12-24T01:53:16.723Z,-0.02
2017-12-24T01:54:26.701Z,-0.1
2017-12-24T01:55:36.689Z,0
2017-12-24T01:56:46.674Z,-0.02
2017-12-24T01:57:56.661Z,0.01
2017-12-24T01:59:06.651Z,-0.05
2017-12-24T02:00:16.630Z,-0.02
2017-12-24T02:01:26.616Z,-0.02
2017-12-24T02:02:36.608Z,-0.05
2017-12-24T02:03:46.591Z,0.09
2017-12-24T02:04:56.573Z,0.11
2017-12-24T02:06:06.558Z,0.01
2017-12-24T02:07:16.540Z,0
2017-12-24T02:08:26.532Z,0.05
2017-12-24T02:09:36.514Z,0.09
2017-12-24T02:10:46.236Z,0.02
2017-12-24T02:11:56.214Z,0.02
2017-12-24T02:13:06.203Z,-0.02
2017-12-24T02:14:16.191Z,-0.05
2017-12-24T02:15:26.220Z,-0.15
2017-12-24T02:16:36.206Z,-0.24
2017-12-24T02:17:46.183Z,-0.39
2017-12-24T02:18:56.165Z,-0.44
2017-12-24T02:20:06.148Z,-0.72
2017-12-24T02:21:16.128Z,-0.91
2017-12-24T02:22:26.116Z,-0.87
2017-12-24T02:23:36.098Z,-0.97
2017-12-24T02:24:46.085Z,-0.96
2017-12-24T02:25:56.068Z,-1.09
2017-12-24T02:27:06.049Z,-1.19
2017-12-24T02:28:16.036Z,-1.25
2017-12-24T02:29:26.017Z,-1.29
2017-12-24T02:30:36.007Z,-1.29
2017-12-24T02:31:45.731Z,-1.24
2017-12-24T02:32:55.715Z,-1.22
2017-12-24T02:34:05.701Z,-1.15
2017-12-24T02:35:15.682Z,-1
2017-12-24T02:36:25.427Z,-0.82
2017-12-24T02:37:35.414Z,-0.77
2017-12-24T02:38:45.400Z,-0.7
2017-12-24T02:39:55.127Z,-0.67
2017-12-24T02:41:05.118Z,-0.62
2017-12-24T02:42:14.834Z,-0.56
2017-12-24T02:43:24.822Z,-0.45
2017-12-24T02:44:34.806Z,-0.36
2017-12-24T02:45:44.813Z,-0.27
2017-12-24T02:46:54.796Z,-0.27
2017-12-24T02:48:04.800Z,-0.13
2017-12-24T02:49:14.796Z,-0.13
2017-12-24T02:50:24.814Z,0.08
2017-12-24T02:51:34.812Z,0.08
2017-12-24T02:52:44.810Z,0.29
2017-12-24T02:53:54.919Z,0.36
2017-12-24T02:55:04.908Z,0.4
2017-12-24T02:56:14.890Z,0.59
2017-12-24T02:57:24.883Z,0.71
2017-12-24T02:58:34.967Z,0.84
2017-12-24T02:59:45.016Z,0.95
2017-12-24T03:00:54.746Z,1.1
2017-12-24T03:02:04.730Z,1.06
2017-12-24T03:03:14.708Z,1.1
2017-12-24T03:04:24.738Z,1.09
2017-12-24T03:05:34.722Z,1.14
2017-12-24T03:06:44.700Z,1.02
2017-12-24T03:07:54.682Z,0.94
2017-12-24T03:09:04.734Z,0.82
2017-12-24T03:10:18.971Z,0.71
2017-12-24T03:11:28.954Z,0.59
2017-12-24T03:12:38.666Z,0.59
2017-12-24T03:13:48.439Z,0.64
2017-12-24T03:14:58.437Z,0.49
2017-12-24T03:16:08.463Z,0.47
2017-12-24T03:17:18.444Z,0.49
2017-12-24T03:18:28.430Z,0.56
2017-12-24T03:19:38.411Z,0.59
2017-12-24T03:20:48.457Z,0.56
2017-12-24T03:21:58.438Z,0.51
2017-12-24T03:23:08.151Z,0.61
2017-12-24T03:24:18.194Z,0.59
2017-12-24T03:25:28.180Z,0.63
2017-12-24T03:26:38.160Z,0.61
2017-12-24T03:27:48.144Z,0.7
2017-12-24T03:28:58.135Z,0.91
2017-12-24T03:30:08.128Z,0.96
2017-12-24T03:31:18.214Z,1
2017-12-24T03:32:28.258Z,1.07
2017-12-24T03:33:38.238Z,1.22
2017-12-24T03:34:48.224Z,1.2
2017-12-24T03:35:58.209Z,1.16
2017-12-24T03:37:07.933Z,0.86
2017-12-24T03:38:17.914Z,0.66
2017-12-24T03:39:27.896Z,0.24
2017-12-24T03:40:37.884Z,0.18
2017-12-24T03:41:47.598Z,0.18
2017-12-24T03:42:57.577Z,0.02
2017-12-24T03:44:07.292Z,0.01
2017-12-24T03:45:17.012Z,0
2017-12-24T03:46:26.725Z,-0.05
2017-12-24T03:47:36.708Z,-0.13
2017-12-24T03:48:46.687Z,-0.21
2017-12-24T03:49:56.675Z,-0.28
2017-12-24T03:51:06.669Z,-0.3
2017-12-24T03:52:16.656Z,-0.28
2017-12-24T03:53:26.639Z,-0.3
2017-12-24T03:54:36.365Z,-0.36
2017-12-24T03:55:46.354Z,-0.36
2017-12-24T03:56:55.808Z,-0.38
2017-12-24T03:58:05.788Z,-0.38
2017-12-24T03:59:15.782Z,-0.39
2017-12-24T04:03:24.997Z,-0.49
2017-12-24T04:04:35.001Z,-0.46
2017-12-24T04:05:45.047Z,-0.48
2017-12-24T04:06:55.087Z,-0.44
2017-12-24T04:08:05.072Z,-0.48
2017-12-24T04:09:15.054Z,-0.48
2017-12-24T04:10:25.037Z,-0.51
2017-12-24T04:11:35.071Z,-0.46
2017-12-24T04:12:45.052Z,-0.49
2017-12-24T04:13:54.823Z,-0.49
2017-12-24T04:15:04.816Z,-0.46
2017-12-24T04:16:14.533Z,-0.46
2017-12-24T04:17:24.510Z,-0.45
2017-12-24T04:18:34.497Z,-0.44
2017-12-24T04:19:44.484Z,-0.45
2017-12-24T04:20:54.196Z,-0.44
2017-12-24T04:22:03.922Z,-0.46
2017-12-24T04:23:13.897Z,-0.46
2017-12-24T04:24:23.881Z,-0.51
2017-12-24T04:25:33.865Z,-0.46
2017-12-24T04:26:43.844Z,-0.49
2017-12-24T04:27:53.857Z,-0.48
2017-12-24T04:29:03.846Z,-0.48
2017-12-24T04:30:13.303Z,-0.51
2017-12-24T04:31:22.755Z,-0.56
2017-12-24T04:32:32.735Z,-0.67
2017-12-24T04:33:42.723Z,-0.56
2017-12-24T04:34:52.705Z,-0.62
2017-12-24T04:36:02.693Z,-0.51
2017-12-24T04:37:12.407Z,-0.54
2017-12-24T04:38:22.389Z,-0.51
2017-12-24T04:39:32.372Z,-0.48
2017-12-24T04:40:42.354Z,-0.49
2017-12-24T04:41:52.336Z,-0.53
2017-12-24T04:43:02.322Z,-0.54
2017-12-24T04:44:12.306Z,-0.51
2017-12-24T04:45:22.035Z,-0.49
2017-12-24T04:46:32.090Z,-0.49
2017-12-24T04:47:42.078Z,-0.49
2017-12-24T04:48:52.073Z,-0.51
2017-12-24T04:50:02.049Z,-0.54
2017-12-24T04:51:12.040Z,-0.49
2017-12-24T04:52:22.038Z,-0.6
2017-12-24T04:53:32.030Z,-0.62
2017-12-24T04:54:42.018Z,-0.59
2017-12-24T04:55:51.994Z,-0.51
2017-12-24T04:57:01.972Z,-0.51
2017-12-24T04:58:11.687Z,-0.56
2017-12-24T04:59:21.400Z,-0.59
2017-12-24T05:00:31.387Z,-0.49
2017-12-24T05:01:41.372Z,-0.56
2017-12-24T05:02:51.352Z,-0.59
2017-12-24T05:04:01.336Z,-0.53
2017-12-24T05:05:11.051Z,-0.48
2017-12-24T05:06:21.029Z,-0.36
2017-12-24T05:07:31.062Z,-0.46
2017-12-24T05:08:40.247Z,-0.51
2017-12-24T05:09:50.232Z,-0.35
2017-12-24T05:11:00.210Z,-0.42
2017-12-24T05:12:10.188Z,-0.49
2017-12-24T05:13:20.169Z,-0.45
2017-12-24T05:14:30.148Z,-0.31
2017-12-24T05:15:40.132Z,-0.41
2017-12-24T05:16:50.119Z,-0.38
2017-12-24T05:18:00.112Z,-0.31
2017-12-24T05:19:10.095Z,-0.33
2017-12-24T05:20:20.076Z,-0.26
2017-12-24T05:21:30.057Z,-0.26
2017-12-24T05:22:40.067Z,-0.18
2017-12-24T05:23:50.046Z,-0.23
2017-12-24T05:25:00.029Z,-0.28
2017-12-24T05:26:09.745Z,-0.28
2017-12-24T05:27:19.722Z,-0.3
2017-12-24T05:28:29.771Z,-0.36
2017-12-24T05:29:39.768Z,-0.31
2017-12-24T05:30:49.747Z,-0.18
2017-12-24T05:31:59.465Z,-0.2
2017-12-24T05:33:09.452Z,-0.18
2017-12-24T05:34:19.436Z,-0.24
2017-12-24T05:35:29.416Z,-0.2
2017-12-24T05:36:39.505Z,-0.21
2017-12-24T05:37:49.484Z,-0.2
2017-12-24T05:38:59.460Z,-0.1
2017-12-24T05:40:08.911Z,-0.12
2017-12-24T05:41:18.893Z,-0.1
2017-12-24T05:42:28.873Z,-0.12
2017-12-24T05:43:38.871Z,-0.06
2017-12-24T05:44:48.852Z,-0.09
2017-12-24T05:45:58.833Z,0.01
2017-12-24T05:47:08.547Z,-0.09
2017-12-24T05:48:17.994Z,0.02
2017-12-24T05:49:27.984Z,-0.02
2017-12-24T05:50:37.964Z,0.08
2017-12-24T05:51:47.944Z,0.08
2017-12-24T05:52:57.927Z,0.02
2017-12-24T05:54:07.648Z,0.06
2017-12-24T05:55:17.626Z,0.11
2017-12-24T05:56:27.350Z,0.08
2017-12-24T05:57:37.330Z,0.11
2017-12-24T05:58:47.310Z,-0.03
2017-12-24T05:59:57.300Z,-0.02
2017-12-24T06:01:07.019Z,-0.05
2017-12-24T06:02:17.013Z,-0.17
2017-12-24T06:03:26.991Z,-0.2
2017-12-24T06:04:36.972Z,-0.33
2017-12-24T06:05:46.955Z,-0.31
2017-12-24T06:06:56.676Z,-0.42
2017-12-24T06:08:06.659Z,-0.49
2017-12-24T06:09:16.651Z,-0.44
2017-12-24T06:10:26.638Z,-0.49
2017-12-24T06:11:36.621Z,-0.62
2017-12-24T06:12:46.658Z,-0.6
2017-12-24T06:13:56.646Z,-0.56
2017-12-24T06:15:06.651Z,-0.59
2017-12-24T06:16:16.366Z,-0.63
2017-12-24T06:17:26.385Z,-0.66
2017-12-24T06:18:36.363Z,-0.57
2017-12-24T06:19:46.350Z,-0.48
2017-12-24T06:20:56.329Z,-0.49
2017-12-24T06:22:06.312Z,-0.38
2017-12-24T06:23:16.289Z,-0.45
2017-12-24T06:24:26.285Z,-0.35
2017-12-24T06:25:36.270Z,-0.17
2017-12-24T06:26:45.991Z,-0.02
2017-12-24T06:27:55.705Z,0.02
2017-12-24T06:29:05.696Z,0.12
2017-12-24T06:30:15.683Z,0.31
2017-12-24T06:31:25.683Z,0.42
2017-12-24T06:32:35.664Z,0.52
2017-12-24T06:33:45.657Z,0.66
2017-12-24T06:34:55.639Z,0.73
2017-12-24T06:36:05.623Z,0.82
2017-12-24T06:37:15.355Z,0.82
2017-12-24T06:38:25.337Z,0.88
2017-12-24T06:39:35.325Z,1.03
2017-12-24T06:40:45.308Z,1
2017-12-24T06:41:55.288Z,1.06
2017-12-24T06:43:05.272Z,1.1
2017-12-24T06:44:14.993Z,1.14
2017-12-24T06:45:24.980Z,1.2
2017-12-24T06:46:34.699Z,1.13
2017-12-24T06:47:44.678Z,1.2
2017-12-24T06:48:54.658Z,1.2
2017-12-24T06:50:04.639Z,1.31
2017-12-24T06:51:14.627Z,1.31
2017-12-24T06:52:24.617Z,1.39
2017-12-24T06:53:34.601Z,1.3
2017-12-24T06:54:44.367Z,1.3
2017-12-24T06:55:53.825Z,1.21
2017-12-24T06:57:03.810Z,1.27
2017-12-24T06:58:13.795Z,1.22
2017-12-24T06:59:23.780Z,1.32
2017-12-24T07:00:33.768Z,1.24
2017-12-24T07:01:43.750Z,1.31
2017-12-24T07:02:53.470Z,1.27
2017-12-24T07:04:03.452Z,1.22
2017-12-24T07:05:13.181Z,1.18
2017-12-24T07:06:23.166Z,1.21
2017-12-24T07:07:33.155Z,1.12
2017-12-24T07:08:43.135Z,1.07
2017-12-24T07:09:53.116Z,1.09
2017-12-24T07:11:03.098Z,1.04
2017-12-24T07:12:13.080Z,1.02
2017-12-24T07:13:23.073Z,1.02
2017-12-24T07:14:32.792Z,1.09
2017-12-24T07:15:42.776Z,1.14
2017-12-24T07:16:52.774Z,1.06
2017-12-24T07:18:02.764Z,1.1
2017-12-24T07:19:12.742Z,1
2017-12-24T07:20:22.727Z,0.92
2017-12-24T07:21:32.450Z,0.78
2017-12-24T07:22:42.435Z,0.84
2017-12-24T07:23:52.423Z,0.76
2017-12-24T07:25:02.139Z,0.7
2017-12-24T07:26:12.127Z,0.68
2017-12-24T07:27:22.108Z,0.64
2017-12-24T07:28:31.827Z,0.64
2017-12-24T07:29:41.548Z,0.67
2017-12-24T07:30:51.541Z,0.58
2017-12-24T07:32:01.255Z,0.58
2017-12-24T07:33:11.245Z,0.51
2017-12-24T07:34:21.223Z,0.49
2017-12-24T07:35:31.209Z,0.45
2017-12-24T07:36:41.191Z,0.39
2017-12-24T07:37:51.173Z,0.34
2017-12-24T07:39:01.658Z,0.27
2017-12-24T07:40:11.378Z,0.12
2017-12-24T07:41:21.415Z,0.16
2017-12-24T07:42:31.396Z,0.11
2017-12-24T07:43:41.382Z,0.09
2017-12-24T07:44:51.104Z,0.05
2017-12-24T07:46:01.085Z,0
2017-12-24T07:47:11.070Z,-0.03
2017-12-24T07:48:21.054Z,-0.15
2017-12-24T07:49:30.763Z,-0.12
2017-12-24T07:50:40.839Z,-0.07
2017-12-24T07:51:50.844Z,-0.06
2017-12-24T07:53:00.823Z,-0.07
2017-12-24T07:54:10.811Z,-0.07
2017-12-24T07:55:20.796Z,-0.09
2017-12-24T07:56:30.780Z,-0.06
2017-12-24T07:57:40.764Z,-0.03
2017-12-24T07:58:50.216Z,-0.07
2017-12-24T08:00:00.195Z,0.05
2017-12-24T08:01:10.220Z,0.06
2017-12-24T08:02:20.515Z,-0.02
2017-12-24T08:03:29.967Z,0.06
2017-12-24T08:04:39.685Z,0.02
2017-12-24T08:05:49.724Z,-0.05
2017-12-24T08:06:59.434Z,0.15
2017-12-24T08:08:09.414Z,0.12
2017-12-24T08:09:19.394Z,0.06
2017-12-24T08:10:29.113Z,0.05
2017-12-24T08:11:39.099Z,0.09
2017-12-24T08:12:49.084Z,0.05
2017-12-24T08:13:59.414Z,0.11
2017-12-24T08:15:09.131Z,0.05
2017-12-24T08:16:19.120Z,-0.02
2017-12-24T08:17:29.187Z,-0.06
2017-12-24T08:18:39.177Z,0.02
2017-12-24T08:19:49.161Z,-0.12
2017-12-24T08:20:59.142Z,-0.09
2017-12-24T08:22:08.859Z,-0.15
2017-12-24T08:23:18.843Z,-0.17
2017-12-24T08:24:28.832Z,-0.1
2017-12-24T08:25:38.816Z,-0.17
2017-12-24T08:26:48.807Z,-0.07
2017-12-24T08:27:58.523Z,0
2017-12-24T08:29:08.512Z,0.06
2017-12-24T08:30:18.493Z,0.18
2017-12-24T08:31:28.473Z,0.26
2017-12-24T08:32:38.458Z,0.33
2017-12-24T08:33:48.439Z,0.33
2017-12-24T08:34:58.429Z,0.48
2017-12-24T08:36:07.881Z,0.45
2017-12-24T08:37:17.874Z,0.49
2017-12-24T08:38:27.858Z,0.44
2017-12-24T08:39:37.840Z,0.45
2017-12-24T08:40:47.820Z,0.48
2017-12-24T08:41:57.533Z,0.59
2017-12-24T08:43:07.517Z,0.64
2017-12-24T08:44:17.496Z,0.59
2017-12-24T08:45:27.480Z,0.66
2017-12-24T08:46:37.464Z,0.67
2017-12-24T08:47:47.450Z,0.64
2017-12-24T08:48:57.441Z,0.49
2017-12-24T08:50:07.424Z,0.29
2017-12-24T08:51:17.138Z,-0.06
2017-12-24T08:52:27.123Z,-0.44
2017-12-24T08:53:37.113Z,-0.56
2017-12-24T08:54:46.843Z,-0.54
2017-12-24T08:55:56.823Z,-0.6
2017-12-24T08:57:06.873Z,-0.6
2017-12-24T08:58:16.595Z,-0.75
2017-12-24T08:59:26.587Z,-0.77
2017-12-24T09:00:36.569Z,-0.77
2017-12-24T09:01:46.550Z,-0.94
2017-12-24T09:02:56.270Z,-0.85
2017-12-24T09:04:06.253Z,-0.96
2017-12-24T09:05:16.033Z,-1.01
2017-12-24T09:06:26.020Z,-1.33
2017-12-24T09:07:36.000Z,-1.4
2017-12-24T09:08:45.988Z,-1.42
2017-12-24T09:09:56.010Z,-1.6
2017-12-24T09:11:05.448Z,-1.66
2017-12-24T09:12:15.431Z,-1.68
2017-12-24T09:13:25.416Z,-1.82
2017-12-24T09:14:35.405Z,-1.82
2017-12-24T09:15:45.121Z,-1.72
2017-12-24T09:16:55.106Z,-1.87
2017-12-24T09:18:04.822Z,-1.87
2017-12-24T09:19:14.816Z,-1.87
2017-12-24T09:20:24.529Z,-1.87
2017-12-24T09:21:34.516Z,-1.9
2017-12-24T09:22:44.496Z,-1.84
2017-12-24T09:23:54.211Z,-1.86
2017-12-24T09:25:04.332Z,-1.92
2017-12-24T09:26:14.314Z,-1.81
2017-12-24T09:27:24.032Z,-1.82
2017-12-24T09:28:34.069Z,-1.96
2017-12-24T09:29:43.787Z,-1.9
2017-12-24T09:30:53.767Z,-1.87
2017-12-24T09:32:03.486Z,-1.87
2017-12-24T09:33:13.204Z,-1.94
2017-12-24T09:34:23.190Z,-1.87
2017-12-24T09:35:33.166Z,-1.86
2017-12-24T09:36:43.147Z,-1.82
2017-12-24T09:37:53.133Z,-1.74
2017-12-24T09:39:03.120Z,-1.66
2017-12-24T09:40:13.129Z,-1.66
2017-12-24T09:41:23.107Z,-1.48
2017-12-24T09:42:33.106Z,-1.54
2017-12-24T09:43:43.139Z,-1.46
2017-12-24T09:44:53.123Z,-1.4
2017-12-24T09:46:03.112Z,-1.35
2017-12-24T09:47:13.098Z,-1.39
2017-12-24T09:48:23.077Z,-1.3
2017-12-24T09:49:33.064Z,-1.27
2017-12-24T09:50:42.776Z,-1.25
2017-12-24T09:51:52.492Z,-1.3
2017-12-24T09:53:02.476Z,-1.22
2017-12-24T09:54:12.461Z,-1.14
2017-12-24T09:55:22.453Z,-1.01
2017-12-24T09:56:32.433Z,-1.01
2017-12-24T09:57:42.432Z,-0.94
2017-12-24T09:58:52.414Z,-0.8
2017-12-24T10:00:02.429Z,-0.94
2017-12-24T10:01:12.145Z,-0.96
2017-12-24T10:02:22.129Z,-0.93
2017-12-24T10:03:31.856Z,-0.94
2017-12-24T10:04:41.573Z,-0.91
2017-12-24T10:05:51.562Z,-0.77
2017-12-24T10:07:01.543Z,-0.72
2017-12-24T10:08:11.263Z,-0.77
2017-12-24T10:09:21.242Z,-0.89
2017-12-24T10:10:31.228Z,-0.89
2017-12-24T10:11:41.241Z,-0.85
2017-12-24T10:12:51.222Z,-0.91
2017-12-24T10:14:00.939Z,-0.87
2017-12-24T10:15:10.669Z,-0.96
2017-12-24T10:16:20.392Z,-1.27
2017-12-24T10:17:30.376Z,-1.43
2017-12-24T10:18:40.368Z,-1.63
2017-12-24T10:19:50.373Z,-1.89
2017-12-24T10:21:00.355Z,-1.96
2017-12-24T10:22:10.337Z,-2.04
2017-12-24T10:23:20.331Z,-2.29
2017-12-24T10:24:30.319Z,-2.33
2017-12-24T10:25:40.309Z,-2.36
2017-12-24T10:26:50.129Z,-2.34
2017-12-24T10:28:00.114Z,-2.36
2017-12-24T10:29:09.840Z,-2.36
2017-12-24T10:30:19.292Z,-2.36
2017-12-24T10:31:29.011Z,-2.26
2017-12-24T10:32:39.006Z,-2.4
2017-12-24T10:33:48.986Z,-2.32
2017-12-24T10:34:58.979Z,-2.34
2017-12-24T10:36:08.988Z,-2.32
2017-12-24T10:37:18.437Z,-2.23
2017-12-24T10:38:28.416Z,-2.34
2017-12-24T10:39:38.403Z,-2.4
2017-12-24T10:40:48.380Z,-2.42
2017-12-24T10:41:58.365Z,-2.33
2017-12-24T10:43:08.350Z,-2.37
2017-12-24T10:44:18.375Z,-2.34
2017-12-24T10:45:28.356Z,-2.22
2017-12-24T10:46:38.337Z,-2.23
2017-12-24T10:47:47.788Z,-2.13
2017-12-24T10:48:57.505Z,-2.22
2017-12-24T10:50:07.486Z,-2.14
2017-12-24T10:51:17.519Z,-2.22
2017-12-24T10:52:27.498Z,-2.1
2017-12-24T10:53:37.487Z,-2.18
2017-12-24T10:54:47.473Z,-2.11
2017-12-24T10:55:57.456Z,-2.11
2017-12-24T10:57:07.448Z,-2
2017-12-24T10:58:17.173Z,-2.02
2017-12-24T10:59:26.890Z,-2.1
2017-12-24T11:00:36.607Z,-2.04
2017-12-24T11:01:46.324Z,-2.22
2017-12-24T11:02:56.323Z,-2.34
2017-12-24T11:04:06.305Z,-2.26
2017-12-24T11:05:16.290Z,-2.37
2017-12-24T11:06:26.269Z,-2.4
2017-12-24T11:07:36.251Z,-2.52
2017-12-24T11:08:48.234Z,-2.5
2017-12-24T11:09:58.224Z,-2.58
2017-12-24T11:11:07.942Z,-2.63
2017-12-24T11:12:17.659Z,-2.69
2017-12-24T11:13:27.644Z,-2.75
2017-12-24T11:14:37.095Z,-2.72
2017-12-24T11:15:47.079Z,-2.65
2017-12-24T11:16:56.800Z,-2.72
2017-12-24T11:18:06.782Z,-2.66
2017-12-24T11:19:16.763Z,-2.73
2017-12-24T11:20:26.482Z,-2.68
2017-12-24T11:21:36.470Z,-2.69
2017-12-24T11:22:46.455Z,-2.73
2017-12-24T11:23:56.436Z,-2.75
2017-12-24T11:25:05.888Z,-2.66
2017-12-24T11:26:15.874Z,-2.69
2017-12-24T11:27:25.590Z,-2.7
2017-12-24T11:28:35.308Z,-2.55
2017-12-24T11:29:45.020Z,-2.51
2017-12-24T11:30:55.000Z,-2.42
2017-12-24T11:32:06.983Z,-2.42
2017-12-24T11:33:16.710Z,-2.34
2017-12-24T11:34:26.423Z,-2.25
2017-12-24T11:35:36.408Z,-2.23
2017-12-24T11:36:46.133Z,-1.97
2017-12-24T11:37:55.850Z,-2.05
2017-12-24T11:39:05.833Z,-2
2017-12-24T11:40:15.546Z,-2.02
2017-12-24T11:41:25.271Z,-1.99
2017-12-24T11:42:34.992Z,-1.87
2017-12-24T11:43:46.979Z,-1.87
2017-12-24T11:44:56.696Z,-1.92
2017-12-24T11:46:06.681Z,-1.87
2017-12-24T11:47:16.668Z,-1.97
2017-12-24T11:48:26.387Z,-2.02
2017-12-24T11:49:36.371Z,-2.02
2017-12-24T11:50:46.095Z,-2.17
2017-12-24T11:51:56.107Z,-2.04
2017-12-24T11:53:05.823Z,-2.02
2017-12-24T11:54:15.536Z,-2.11
2017-12-24T11:55:25.532Z,-1.97
2017-12-24T11:56:35.515Z,-1.96
2017-12-24T11:57:45.493Z,-2.02
2017-12-24T11:58:55.473Z,-1.97
2017-12-24T12:00:05.186Z,-2.15
2017-12-24T12:01:15.188Z,-2.22
2017-12-24T12:02:24.905Z,-2.26
2017-12-24T12:03:34.359Z,-2.39
2017-12-24T12:04:44.339Z,-2.47
2017-12-24T12:05:54.058Z,-2.4
2017-12-24T12:07:04.035Z,-2.32
2017-12-24T12:08:14.020Z,-2.34
2017-12-24T12:09:24.040Z,-2.33
2017-12-24T12:10:33.749Z,-2.34
2017-12-24T12:11:43.735Z,-2.34
2017-12-24T12:12:53.464Z,-2.32
2017-12-24T12:14:03.254Z,-2.32
2017-12-24T12:15:12.971Z,-2.34
2017-12-24T12:16:22.954Z,-2.28
2017-12-24T12:17:32.932Z,-2.26
2017-12-24T12:18:42.652Z,-2.36
2017-12-24T12:19:52.642Z,-2.33
2017-12-24T12:21:02.657Z,-2.42
2017-12-24T12:22:12.445Z,-2.45
2017-12-24T12:23:22.425Z,-2.44
2017-12-24T12:24:32.141Z,-2.4
2017-12-24T12:25:41.859Z,-2.47
2017-12-24T12:26:51.835Z,-2.44
2017-12-24T12:28:01.819Z,-2.44
2017-12-24T12:29:11.804Z,-2.39
2017-12-24T12:30:21.785Z,-2.39
2017-12-24T12:31:31.775Z,-2.4
2017-12-24T12:32:41.759Z,-2.47
2017-12-24T12:33:51.779Z,-2.45
2017-12-24T12:35:01.498Z,-2.39
2017-12-24T12:36:11.483Z,-2.4
2017-12-24T12:37:21.199Z,-2.52
2017-12-24T12:38:31.194Z,-2.55
2017-12-24T12:39:40.912Z,-2.5
2017-12-24T12:40:50.945Z,-2.51
2017-12-24T12:42:00.931Z,-2.57
2017-12-24T12:43:10.915Z,-2.7
2017-12-24T12:44:20.892Z,-2.68
2017-12-24T12:45:30.870Z,-2.8
2017-12-24T12:46:40.853Z,-2.78
2017-12-24T12:47:50.568Z,-2.84
2017-12-24T12:49:00.547Z,-2.87
2017-12-24T12:50:10.263Z,-2.83
2017-12-24T12:51:20.243Z,-2.72
2017-12-24T12:52:30.253Z,-2.68
2017-12-24T12:53:40.236Z,-2.68
2017-12-24T12:54:50.222Z,-2.63
2017-12-24T12:56:00.208Z,-2.58
2017-12-24T12:57:10.310Z,-2.62
2017-12-24T12:58:19.494Z,-2.58
2017-12-24T12:59:29.476Z,-2.66
2017-12-24T13:00:39.454Z,-2.55
2017-12-24T13:01:49.430Z,-2.54
2017-12-24T13:02:59.417Z,-2.57
2017-12-24T13:04:09.403Z,-2.58
2017-12-24T13:05:19.386Z,-2.68
2017-12-24T13:06:29.100Z,-2.7
2017-12-24T13:07:39.078Z,-2.69
2017-12-24T13:08:49.066Z,-2.83
2017-12-24T13:09:58.778Z,-2.89
2017-12-24T13:11:08.775Z,-2.7
2017-12-24T13:12:18.790Z,-2.75
2017-12-24T13:13:28.772Z,-2.84
2017-12-24T13:14:38.750Z,-2.78
2017-12-24T13:15:48.730Z,-2.75
2017-12-24T13:16:58.705Z,-2.9
2017-12-24T13:18:08.702Z,-2.9
2017-12-24T13:19:18.686Z,-2.9
2017-12-24T13:20:28.397Z,-2.98
2017-12-24T13:21:38.383Z,-2.96
2017-12-24T13:22:48.360Z,-3.12
2017-12-24T13:23:57.810Z,-3.07
2017-12-24T13:25:07.526Z,-3.15
2017-12-24T13:26:17.512Z,-3.15
2017-12-24T13:27:27.496Z,-3.26
2017-12-24T13:28:37.209Z,-3.23
2017-12-24T13:29:46.668Z,-3.4
2017-12-24T13:30:56.394Z,-3.29
2017-12-24T13:32:06.380Z,-3.41
2017-12-24T13:33:16.359Z,-3.43
2017-12-24T13:34:26.335Z,-3.33
2017-12-24T13:35:36.316Z,-3.19
2017-12-24T13:36:46.290Z,-3.3
2017-12-24T13:37:56.007Z,-3.2
2017-12-24T13:39:05.986Z,-3.36
2017-12-24T13:40:15.965Z,-3.3
2017-12-24T13:41:25.421Z,-3.27
2017-12-24T13:42:35.132Z,-3.25
2017-12-24T13:43:45.249Z,-3.27
2017-12-24T13:44:55.225Z,-3.22
2017-12-24T13:46:05.203Z,-3.32
2017-12-24T13:47:14.918Z,-3.2
2017-12-24T13:48:24.637Z,-3.26
2017-12-24T13:49:34.626Z,-3.3
2017-12-24T13:50:44.612Z,-3.25
2017-12-24T13:51:54.596Z,-3.23
2017-12-24T13:53:04.576Z,-3.27
2017-12-24T13:54:14.557Z,-3.23
2017-12-24T13:55:24.273Z,-3.08
2017-12-24T13:56:33.987Z,-2.96
2017-12-24T13:57:43.717Z,-2.9
2017-12-24T13:58:53.698Z,-2.93
2017-12-24T14:00:03.677Z,-2.91
2017-12-24T14:01:13.661Z,-2.89
2017-12-24T14:02:23.376Z,-2.89
2017-12-24T14:03:33.363Z,-2.94
2017-12-24T14:04:43.355Z,-2.9
2017-12-24T14:05:53.070Z,-2.87
2017-12-24T14:07:03.049Z,-2.89
2017-12-24T14:08:12.764Z,-2.94
2017-12-24T14:09:23.048Z,-2.94
2017-12-24T14:10:33.055Z,-2.98
2017-12-24T14:11:43.038Z,-3.01
2017-12-24T14:12:53.066Z,-3.01
2017-12-24T14:14:02.792Z,-3.11
2017-12-24T14:15:12.506Z,-3.08
2017-12-24T14:16:22.219Z,-3.15
2017-12-24T14:17:32.203Z,-3.07
2017-12-24T14:18:42.184Z,-3.22
2017-12-24T14:19:52.166Z,-3.17
2017-12-24T14:21:02.146Z,-3.27
2017-12-24T14:22:11.866Z,-3.29
2017-12-24T14:23:21.845Z,-3.26
2017-12-24T14:24:31.563Z,-3.33
2017-12-24T14:25:41.551Z,-3.25
2017-12-24T14:26:51.547Z,-3.25
2017-12-24T14:28:01.525Z,-3.2
2017-12-24T14:29:11.243Z,-3.29
2017-12-24T14:30:20.975Z,-3.3
2017-12-24T14:31:30.955Z,-3.33
2017-12-24T14:32:40.737Z,-3.41
2017-12-24T14:33:50.718Z,-3.4
2017-12-24T14:35:00.696Z,-3.38
2017-12-24T14:36:10.409Z,-3.4
2017-12-24T14:37:20.395Z,-3.37
2017-12-24T14:38:30.118Z,-3.4
2017-12-24T14:39:40.153Z,-3.36
2017-12-24T14:40:50.140Z,-3.4
2017-12-24T14:41:59.593Z,-3.4
2017-12-24T14:43:09.574Z,-3.46
2017-12-24T14:44:19.288Z,-3.37
2017-12-24T14:45:29.000Z,-3.61
2017-12-24T14:46:38.717Z,-3.69
2017-12-24T14:47:48.702Z,-3.8
2017-12-24T14:48:58.684Z,-3.94
2017-12-24T14:50:09.013Z,-3.99
2017-12-24T14:51:18.736Z,-3.95
2017-12-24T14:52:28.712Z,-4.05
2017-12-24T14:53:38.693Z,-4.17
2017-12-24T14:54:48.674Z,-4.2
2017-12-24T14:55:58.656Z,-4.19
2017-12-24T14:57:08.645Z,-4.19
2017-12-24T14:58:18.624Z,-4.13
2017-12-24T14:59:28.341Z,-4.22
2017-12-24T15:00:38.325Z,-4.19
2017-12-24T15:01:48.304Z,-4.16
2017-12-24T15:02:58.295Z,-4.17
2017-12-24T15:04:08.279Z,-4.12
2017-12-24T15:05:17.996Z,-4.06
2017-12-24T15:06:27.989Z,-4.04
2017-12-24T15:07:37.974Z,-4.04
2017-12-24T15:08:47.964Z,-3.91
2017-12-24T15:09:57.991Z,-3.85
2017-12-24T15:11:07.475Z,-3.83
2017-12-24T15:12:17.461Z,-3.75
2017-12-24T15:13:27.172Z,-3.69
2017-12-24T15:14:37.206Z,-3.64
2017-12-24T15:15:46.919Z,-3.47
2017-12-24T15:16:56.896Z,-3.44
2017-12-24T15:18:06.880Z,-3.43